sensor_id;sensor_type;location;lat;lon;timestamp;temperature;humidity
71206;SHT31;58935;54.498;18.544;2023-11-18T00:00:19;4.43;81.70
71206;SHT31;58935;54.498;18.544;2023-11-18T00:02:47;4.42;81.79
71206;SHT31;58935;54.498;18.544;2023-11-18T00:05:15;4.42;81.75
71206;SHT31;58935;54.498;18.544;2023-11-18T00:07:41;4.42;81.84
71206;SHT31;58935;54.498;18.544;2023-11-18T00:10:07;4.42;81.96
71206;SHT31;58935;54.498;18.544;2023-11-18T00:12:36;4.45;82.05
71206;SHT31;58935;54.498;18.544;2023-11-18T00:15:06;4.47;82.05
71206;SHT31;58935;54.498;18.544;2023-11-18T00:17:35;4.48;81.93
71206;SHT31;58935;54.498;18.544;2023-11-18T00:20:01;4.48;81.87
71206;SHT31;58935;54.498;18.544;2023-11-18T00:22:34;4.49;81.91
71206;SHT31;58935;54.498;18.544;2023-11-18T00:25:02;4.50;82.01
71206;SHT31;58935;54.498;18.544;2023-11-18T00:27:30;4.53;82.03
71206;SHT31;58935;54.498;18.544;2023-11-18T00:29:56;4.55;81.93
71206;SHT31;58935;54.498;18.544;2023-11-18T00:32:22;4.53;81.71
71206;SHT31;58935;54.498;18.544;2023-11-18T00:34:49;4.51;81.74
71206;SHT31;58935;54.498;18.544;2023-11-18T00:37:15;4.51;81.97
71206;SHT31;58935;54.498;18.544;2023-11-18T00:39:40;4.52;82.03
71206;SHT31;58935;54.498;18.544;2023-11-18T00:42:06;4.52;82.08
71206;SHT31;58935;54.498;18.544;2023-11-18T00:44:32;4.51;81.91
71206;SHT31;58935;54.498;18.544;2023-11-18T00:46:57;4.50;82.00
71206;SHT31;58935;54.498;18.544;2023-11-18T00:49:23;4.49;82.04
71206;SHT31;58935;54.498;18.544;2023-11-18T00:51:51;4.49;82.01
71206;SHT31;58935;54.498;18.544;2023-11-18T00:54:16;4.49;82.05
71206;SHT31;58935;54.498;18.544;2023-11-18T00:56:42;4.51;82.08
71206;SHT31;58935;54.498;18.544;2023-11-18T00:59:07;4.53;81.80
71206;SHT31;58935;54.498;18.544;2023-11-18T01:01:33;4.53;81.44
71206;SHT31;58935;54.498;18.544;2023-11-18T01:03:58;4.55;81.29
71206;SHT31;58935;54.498;18.544;2023-11-18T01:06:24;4.56;81.33
71206;SHT31;58935;54.498;18.544;2023-11-18T01:08:51;4.59;81.30
71206;SHT31;58935;54.498;18.544;2023-11-18T01:11:17;4.63;81.36
71206;SHT31;58935;54.498;18.544;2023-11-18T01:13:45;4.65;81.16
71206;SHT31;58935;54.498;18.544;2023-11-18T01:16:11;4.67;81.01
71206;SHT31;58935;54.498;18.544;2023-11-18T01:18:38;4.67;80.79
71206;SHT31;58935;54.498;18.544;2023-11-18T01:21:06;4.68;80.62
71206;SHT31;58935;54.498;18.544;2023-11-18T01:23:35;4.67;79.84
71206;SHT31;58935;54.498;18.544;2023-11-18T01:26:03;4.64;79.02
71206;SHT31;58935;54.498;18.544;2023-11-18T01:28:31;4.61;79.07
71206;SHT31;58935;54.498;18.544;2023-11-18T01:31:02;4.59;78.77
71206;SHT31;58935;54.498;18.544;2023-11-18T01:33:29;4.56;76.86
71206;SHT31;58935;54.498;18.544;2023-11-18T01:35:55;4.55;76.03
71206;SHT31;58935;54.498;18.544;2023-11-18T01:38:21;4.53;74.80
71206;SHT31;58935;54.498;18.544;2023-11-18T01:40:46;4.53;74.32
71206;SHT31;58935;54.498;18.544;2023-11-18T01:43:12;4.50;74.07
71206;SHT31;58935;54.498;18.544;2023-11-18T01:45:40;4.48;74.05
71206;SHT31;58935;54.498;18.544;2023-11-18T01:48:08;4.48;74.68
71206;SHT31;58935;54.498;18.544;2023-11-18T01:50:36;4.49;75.30
71206;SHT31;58935;54.498;18.544;2023-11-18T01:53:03;4.48;75.01
71206;SHT31;58935;54.498;18.544;2023-11-18T01:55:30;4.49;74.73
71206;SHT31;58935;54.498;18.544;2023-11-18T01:57:56;4.50;74.58
71206;SHT31;58935;54.498;18.544;2023-11-18T02:00:23;4.52;74.56
71206;SHT31;58935;54.498;18.544;2023-11-18T02:02:52;4.53;74.71
71206;SHT31;58935;54.498;18.544;2023-11-18T02:05:20;4.55;75.08
71206;SHT31;58935;54.498;18.544;2023-11-18T02:07:47;4.55;75.17
71206;SHT31;58935;54.498;18.544;2023-11-18T02:10:12;4.55;74.93
71206;SHT31;58935;54.498;18.544;2023-11-18T02:12:41;4.58;75.33
71206;SHT31;58935;54.498;18.544;2023-11-18T02:15:21;4.59;75.83
71206;SHT31;58935;54.498;18.544;2023-11-18T02:17:50;4.58;75.36
71206;SHT31;58935;54.498;18.544;2023-11-18T02:20:21;4.60;74.83
71206;SHT31;58935;54.498;18.544;2023-11-18T02:22:48;4.61;75.05
71206;SHT31;58935;54.498;18.544;2023-11-18T02:25:15;4.61;74.61
71206;SHT31;58935;54.498;18.544;2023-11-18T02:27:43;4.62;74.57
71206;SHT31;58935;54.498;18.544;2023-11-18T02:30:12;4.64;74.96
71206;SHT31;58935;54.498;18.544;2023-11-18T02:32:45;4.66;74.58
71206;SHT31;58935;54.498;18.544;2023-11-18T02:35:24;4.65;73.08
71206;SHT31;58935;54.498;18.544;2023-11-18T02:38:00;4.64;72.74
71206;SHT31;58935;54.498;18.544;2023-11-18T02:40:29;4.63;73.22
71206;SHT31;58935;54.498;18.544;2023-11-18T02:43:00;4.64;73.43
71206;SHT31;58935;54.498;18.544;2023-11-18T02:45:32;4.65;73.17
71206;SHT31;58935;54.498;18.544;2023-11-18T02:48:01;4.66;73.06
71206;SHT31;58935;54.498;18.544;2023-11-18T02:50:27;4.66;73.13
71206;SHT31;58935;54.498;18.544;2023-11-18T02:52:54;4.69;73.48
71206;SHT31;58935;54.498;18.544;2023-11-18T02:55:20;4.71;73.36
71206;SHT31;58935;54.498;18.544;2023-11-18T02:57:47;4.70;72.91
71206;SHT31;58935;54.498;18.544;2023-11-18T03:00:17;4.71;73.07
71206;SHT31;58935;54.498;18.544;2023-11-18T03:02:46;4.71;72.62
71206;SHT31;58935;54.498;18.544;2023-11-18T03:05:13;4.70;72.50
71206;SHT31;58935;54.498;18.544;2023-11-18T03:07:41;4.70;72.72
71206;SHT31;58935;54.498;18.544;2023-11-18T03:10:09;4.73;72.89
71206;SHT31;58935;54.498;18.544;2023-11-18T03:12:37;4.72;72.84
71206;SHT31;58935;54.498;18.544;2023-11-18T03:15:05;4.74;73.24
71206;SHT31;58935;54.498;18.544;2023-11-18T03:17:34;4.75;73.58
71206;SHT31;58935;54.498;18.544;2023-11-18T03:20:00;4.77;73.93
71206;SHT31;58935;54.498;18.544;2023-11-18T03:22:28;4.78;74.21
71206;SHT31;58935;54.498;18.544;2023-11-18T03:24:53;4.81;74.50
71206;SHT31;58935;54.498;18.544;2023-11-18T03:27:19;4.84;74.81
71206;SHT31;58935;54.498;18.544;2023-11-18T03:29:44;4.86;75.14
71206;SHT31;58935;54.498;18.544;2023-11-18T03:32:13;4.89;75.37
71206;SHT31;58935;54.498;18.544;2023-11-18T03:34:39;4.91;75.62
71206;SHT31;58935;54.498;18.544;2023-11-18T03:37:04;4.93;75.98
71206;SHT31;58935;54.498;18.544;2023-11-18T03:39:32;4.96;75.95
71206;SHT31;58935;54.498;18.544;2023-11-18T03:41:57;4.98;76.08
71206;SHT31;58935;54.498;18.544;2023-11-18T03:44:25;5.00;76.32
71206;SHT31;58935;54.498;18.544;2023-11-18T03:46:51;5.00;76.37
71206;SHT31;58935;54.498;18.544;2023-11-18T03:49:16;4.97;76.55
71206;SHT31;58935;54.498;18.544;2023-11-18T03:51:42;4.95;76.74
71206;SHT31;58935;54.498;18.544;2023-11-18T03:54:08;4.96;76.83
71206;SHT31;58935;54.498;18.544;2023-11-18T03:56:34;4.96;77.03
71206;SHT31;58935;54.498;18.544;2023-11-18T03:58:59;4.96;77.05
71206;SHT31;58935;54.498;18.544;2023-11-18T04:01:25;4.96;76.96
71206;SHT31;58935;54.498;18.544;2023-11-18T04:03:52;4.95;77.11
71206;SHT31;58935;54.498;18.544;2023-11-18T04:06:19;4.93;77.07
71206;SHT31;58935;54.498;18.544;2023-11-18T04:08:48;4.93;77.04
71206;SHT31;58935;54.498;18.544;2023-11-18T04:11:14;4.91;76.98
71206;SHT31;58935;54.498;18.544;2023-11-18T04:13:40;4.90;76.89
71206;SHT31;58935;54.498;18.544;2023-11-18T04:16:11;4.87;76.96
71206;SHT31;58935;54.498;18.544;2023-11-18T04:18:38;4.86;77.08
71206;SHT31;58935;54.498;18.544;2023-11-18T04:21:06;4.84;77.02
71206;SHT31;58935;54.498;18.544;2023-11-18T04:23:33;4.82;77.02
71206;SHT31;58935;54.498;18.544;2023-11-18T04:26:02;4.79;77.07
71206;SHT31;58935;54.498;18.544;2023-11-18T04:28:29;4.77;77.11
71206;SHT31;58935;54.498;18.544;2023-11-18T04:30:55;4.71;77.03
71206;SHT31;58935;54.498;18.544;2023-11-18T04:33:21;4.64;77.05
71206;SHT31;58935;54.498;18.544;2023-11-18T04:35:49;4.57;77.04
71206;SHT31;58935;54.498;18.544;2023-11-18T04:38:17;4.50;76.93
71206;SHT31;58935;54.498;18.544;2023-11-18T04:40:46;4.46;77.00
71206;SHT31;58935;54.498;18.544;2023-11-18T04:43:12;4.46;77.12
71206;SHT31;58935;54.498;18.544;2023-11-18T04:45:37;4.45;77.10
71206;SHT31;58935;54.498;18.544;2023-11-18T04:48:04;4.43;77.12
71206;SHT31;58935;54.498;18.544;2023-11-18T04:50:32;4.45;77.25
71206;SHT31;58935;54.498;18.544;2023-11-18T04:53:00;4.47;77.26
71206;SHT31;58935;54.498;18.544;2023-11-18T04:55:28;4.47;77.16
71206;SHT31;58935;54.498;18.544;2023-11-18T04:57:54;4.49;77.19
71206;SHT31;58935;54.498;18.544;2023-11-18T05:00:19;4.49;77.09
71206;SHT31;58935;54.498;18.544;2023-11-18T05:02:46;4.49;77.10
71206;SHT31;58935;54.498;18.544;2023-11-18T05:05:14;4.50;77.02
71206;SHT31;58935;54.498;18.544;2023-11-18T05:07:40;4.47;76.89
71206;SHT31;58935;54.498;18.544;2023-11-18T05:10:07;4.45;76.74
71206;SHT31;58935;54.498;18.544;2023-11-18T05:12:34;4.43;76.70
71206;SHT31;58935;54.498;18.544;2023-11-18T05:14:59;4.41;76.76
71206;SHT31;58935;54.498;18.544;2023-11-18T05:17:31;4.42;76.83
71206;SHT31;58935;54.498;18.544;2023-11-18T05:19:56;4.41;76.75
71206;SHT31;58935;54.498;18.544;2023-11-18T05:22:22;4.41;76.73
71206;SHT31;58935;54.498;18.544;2023-11-18T05:24:50;4.37;76.38
71206;SHT31;58935;54.498;18.544;2023-11-18T05:27:18;4.35;76.54
71206;SHT31;58935;54.498;18.544;2023-11-18T05:29:43;4.34;76.51
71206;SHT31;58935;54.498;18.544;2023-11-18T05:32:13;4.28;76.30
71206;SHT31;58935;54.498;18.544;2023-11-18T05:34:39;4.24;76.52
71206;SHT31;58935;54.498;18.544;2023-11-18T05:37:07;4.22;76.74
71206;SHT31;58935;54.498;18.544;2023-11-18T05:39:32;4.22;76.86
71206;SHT31;58935;54.498;18.544;2023-11-18T05:42:00;4.23;77.02
71206;SHT31;58935;54.498;18.544;2023-11-18T05:44:25;4.23;76.94
71206;SHT31;58935;54.498;18.544;2023-11-18T05:46:57;4.21;76.90
71206;SHT31;58935;54.498;18.544;2023-11-18T05:49:23;4.21;76.88
71206;SHT31;58935;54.498;18.544;2023-11-18T05:51:49;4.22;77.10
71206;SHT31;58935;54.498;18.544;2023-11-18T05:54:17;4.24;77.23
71206;SHT31;58935;54.498;18.544;2023-11-18T05:56:42;4.27;77.31
71206;SHT31;58935;54.498;18.544;2023-11-18T05:59:11;4.26;77.00
71206;SHT31;58935;54.498;18.544;2023-11-18T06:01:38;4.22;76.87
71206;SHT31;58935;54.498;18.544;2023-11-18T06:04:04;4.20;76.94
71206;SHT31;58935;54.498;18.544;2023-11-18T06:06:33;4.15;76.96
71206;SHT31;58935;54.498;18.544;2023-11-18T06:08:59;4.14;77.10
71206;SHT31;58935;54.498;18.544;2023-11-18T06:11:30;4.15;77.06
71206;SHT31;58935;54.498;18.544;2023-11-18T06:13:57;4.12;76.93
71206;SHT31;58935;54.498;18.544;2023-11-18T06:16:25;4.09;77.00
71206;SHT31;58935;54.498;18.544;2023-11-18T06:18:53;4.08;77.18
71206;SHT31;58935;54.498;18.544;2023-11-18T06:21:22;4.09;77.08
71206;SHT31;58935;54.498;18.544;2023-11-18T06:23:52;4.07;76.85
71206;SHT31;58935;54.498;18.544;2023-11-18T06:26:19;4.02;76.85
71206;SHT31;58935;54.498;18.544;2023-11-18T06:28:47;4.00;76.85
71206;SHT31;58935;54.498;18.544;2023-11-18T06:31:17;3.99;77.02
71206;SHT31;58935;54.498;18.544;2023-11-18T06:33:45;3.99;76.83
71206;SHT31;58935;54.498;18.544;2023-11-18T06:38:47;3.93;76.59
71206;SHT31;58935;54.498;18.544;2023-11-18T06:41:15;3.92;76.69
71206;SHT31;58935;54.498;18.544;2023-11-18T06:43:46;3.92;76.66
71206;SHT31;58935;54.498;18.544;2023-11-18T06:46:14;3.93;76.75
71206;SHT31;58935;54.498;18.544;2023-11-18T06:48:40;3.95;76.76
71206;SHT31;58935;54.498;18.544;2023-11-18T06:51:06;3.96;76.66
71206;SHT31;58935;54.498;18.544;2023-11-18T06:53:33;3.96;76.66
71206;SHT31;58935;54.498;18.544;2023-11-18T06:55:59;3.97;76.88
71206;SHT31;58935;54.498;18.544;2023-11-18T06:58:25;4.01;76.75
71206;SHT31;58935;54.498;18.544;2023-11-18T07:00:51;4.01;76.69
71206;SHT31;58935;54.498;18.544;2023-11-18T07:03:17;4.02;76.70
71206;SHT31;58935;54.498;18.544;2023-11-18T07:05:43;4.04;76.73
71206;SHT31;58935;54.498;18.544;2023-11-18T07:08:13;4.07;76.65
71206;SHT31;58935;54.498;18.544;2023-11-18T07:10:40;4.08;76.61
71206;SHT31;58935;54.498;18.544;2023-11-18T07:13:06;4.10;76.66
71206;SHT31;58935;54.498;18.544;2023-11-18T07:15:34;4.11;76.57
71206;SHT31;58935;54.498;18.544;2023-11-18T07:18:01;4.11;76.68
71206;SHT31;58935;54.498;18.544;2023-11-18T07:20:27;4.14;76.95
71206;SHT31;58935;54.498;18.544;2023-11-18T07:22:52;4.17;77.02
71206;SHT31;58935;54.498;18.544;2023-11-18T07:25:19;4.20;76.82
71206;SHT31;58935;54.498;18.544;2023-11-18T07:27:45;4.22;76.76
71206;SHT31;58935;54.498;18.544;2023-11-18T07:30:11;4.22;76.68
71206;SHT31;58935;54.498;18.544;2023-11-18T07:32:37;4.22;76.62
71206;SHT31;58935;54.498;18.544;2023-11-18T07:35:05;4.24;76.55
71206;SHT31;58935;54.498;18.544;2023-11-18T07:37:37;4.25;76.60
71206;SHT31;58935;54.498;18.544;2023-11-18T07:40:03;4.28;76.66
71206;SHT31;58935;54.498;18.544;2023-11-18T07:42:31;4.30;76.74
71206;SHT31;58935;54.498;18.544;2023-11-18T07:45:00;4.31;76.81
71206;SHT31;58935;54.498;18.544;2023-11-18T07:47:29;4.33;76.67
71206;SHT31;58935;54.498;18.544;2023-11-18T07:49:57;4.32;76.73
71206;SHT31;58935;54.498;18.544;2023-11-18T07:52:25;4.34;76.84
71206;SHT31;58935;54.498;18.544;2023-11-18T07:54:53;4.36;76.82
71206;SHT31;58935;54.498;18.544;2023-11-18T07:57:19;4.39;76.71
71206;SHT31;58935;54.498;18.544;2023-11-18T07:59:44;4.41;76.54
71206;SHT31;58935;54.498;18.544;2023-11-18T08:02:10;4.44;76.76
71206;SHT31;58935;54.498;18.544;2023-11-18T08:04:35;4.48;76.94
71206;SHT31;58935;54.498;18.544;2023-11-18T08:07:04;4.53;76.89
71206;SHT31;58935;54.498;18.544;2023-11-18T08:09:30;4.56;76.77
71206;SHT31;58935;54.498;18.544;2023-11-18T08:11:57;4.59;76.42
71206;SHT31;58935;54.498;18.544;2023-11-18T08:14:23;4.60;76.41
71206;SHT31;58935;54.498;18.544;2023-11-18T08:16:49;4.63;76.45
71206;SHT31;58935;54.498;18.544;2023-11-18T08:19:16;4.64;76.28
71206;SHT31;58935;54.498;18.544;2023-11-18T08:21:42;4.67;76.52
71206;SHT31;58935;54.498;18.544;2023-11-18T08:24:08;4.72;76.61
71206;SHT31;58935;54.498;18.544;2023-11-18T08:26:35;4.77;76.58
71206;SHT31;58935;54.498;18.544;2023-11-18T08:29:01;4.80;76.50
71206;SHT31;58935;54.498;18.544;2023-11-18T08:31:26;4.83;76.47
71206;SHT31;58935;54.498;18.544;2023-11-18T08:33:52;4.88;76.56
71206;SHT31;58935;54.498;18.544;2023-11-18T08:36:22;4.90;76.36
71206;SHT31;58935;54.498;18.544;2023-11-18T08:38:52;4.93;76.28
71206;SHT31;58935;54.498;18.544;2023-11-18T08:41:21;4.93;75.90
71206;SHT31;58935;54.498;18.544;2023-11-18T08:43:47;4.91;75.90
71206;SHT31;58935;54.498;18.544;2023-11-18T08:46:14;4.89;75.82
71206;SHT31;58935;54.498;18.544;2023-11-18T08:48:40;4.90;75.90
71206;SHT31;58935;54.498;18.544;2023-11-18T08:51:06;4.87;75.87
71206;SHT31;58935;54.498;18.544;2023-11-18T08:53:34;4.81;75.77
71206;SHT31;58935;54.498;18.544;2023-11-18T08:56:07;4.76;76.24
71206;SHT31;58935;54.498;18.544;2023-11-18T08:58:40;4.73;76.45
71206;SHT31;58935;54.498;18.544;2023-11-18T09:01:07;4.74;76.82
71206;SHT31;58935;54.498;18.544;2023-11-18T09:03:38;4.76;76.95
71206;SHT31;58935;54.498;18.544;2023-11-18T09:06:07;4.74;77.09
71206;SHT31;58935;54.498;18.544;2023-11-18T09:08:38;4.75;77.05
71206;SHT31;58935;54.498;18.544;2023-11-18T09:11:04;4.71;76.90
71206;SHT31;58935;54.498;18.544;2023-11-18T09:13:36;4.68;77.03
71206;SHT31;58935;54.498;18.544;2023-11-18T09:16:04;4.67;77.31
71206;SHT31;58935;54.498;18.544;2023-11-18T09:18:34;4.68;77.27
71206;SHT31;58935;54.498;18.544;2023-11-18T09:21:05;4.69;77.32
71206;SHT31;58935;54.498;18.544;2023-11-18T09:23:34;4.72;77.56
71206;SHT31;58935;54.498;18.544;2023-11-18T09:26:00;4.76;77.44
71206;SHT31;58935;54.498;18.544;2023-11-18T09:28:27;4.80;77.48
71206;SHT31;58935;54.498;18.544;2023-11-18T09:30:58;4.87;77.67
71206;SHT31;58935;54.498;18.544;2023-11-18T09:33:24;4.96;77.34
71206;SHT31;58935;54.498;18.544;2023-11-18T09:35:55;5.02;77.07
71206;SHT31;58935;54.498;18.544;2023-11-18T09:38:26;5.10;76.93
71206;SHT31;58935;54.498;18.544;2023-11-18T09:41:01;5.15;76.63
71206;SHT31;58935;54.498;18.544;2023-11-18T09:43:29;5.16;76.16
71206;SHT31;58935;54.498;18.544;2023-11-18T09:46:03;5.15;76.07
71206;SHT31;58935;54.498;18.544;2023-11-18T09:48:39;5.16;75.93
71206;SHT31;58935;54.498;18.544;2023-11-18T09:51:17;5.18;75.39
71206;SHT31;58935;54.498;18.544;2023-11-18T09:53:49;5.17;75.16
71206;SHT31;58935;54.498;18.544;2023-11-18T09:56:18;5.18;75.26
71206;SHT31;58935;54.498;18.544;2023-11-18T09:59:04;5.17;75.34
71206;SHT31;58935;54.498;18.544;2023-11-18T10:01:44;5.14;75.63
71206;SHT31;58935;54.498;18.544;2023-11-18T10:04:22;5.12;75.99
71206;SHT31;58935;54.498;18.544;2023-11-18T10:06:53;5.11;76.29
71206;SHT31;58935;54.498;18.544;2023-11-18T10:09:21;5.13;76.47
71206;SHT31;58935;54.498;18.544;2023-11-18T10:11:53;5.16;76.34
71206;SHT31;58935;54.498;18.544;2023-11-18T10:14:26;5.17;76.06
71206;SHT31;58935;54.498;18.544;2023-11-18T10:16:52;5.22;75.88
71206;SHT31;58935;54.498;18.544;2023-11-18T10:19:19;5.24;75.74
71206;SHT31;58935;54.498;18.544;2023-11-18T10:21:51;5.29;75.84
71206;SHT31;58935;54.498;18.544;2023-11-18T10:24:21;5.35;75.74
71206;SHT31;58935;54.498;18.544;2023-11-18T10:29:21;5.38;75.68
71206;SHT31;58935;54.498;18.544;2023-11-18T10:32:01;5.40;75.88
71206;SHT31;58935;54.498;18.544;2023-11-18T10:34:34;5.42;75.82
71206;SHT31;58935;54.498;18.544;2023-11-18T10:37:01;5.42;75.89
71206;SHT31;58935;54.498;18.544;2023-11-18T10:39:29;5.42;75.92
71206;SHT31;58935;54.498;18.544;2023-11-18T10:41:58;5.41;75.77
71206;SHT31;58935;54.498;18.544;2023-11-18T10:44:25;5.36;75.69
71206;SHT31;58935;54.498;18.544;2023-11-18T10:46:51;5.30;75.88
71206;SHT31;58935;54.498;18.544;2023-11-18T10:49:24;5.26;76.17
71206;SHT31;58935;54.498;18.544;2023-11-18T10:51:52;5.23;76.58
71206;SHT31;58935;54.498;18.544;2023-11-18T10:54:18;5.23;76.74
71206;SHT31;58935;54.498;18.544;2023-11-18T10:56:47;5.28;77.10
71206;SHT31;58935;54.498;18.544;2023-11-18T10:59:15;5.31;77.25
71206;SHT31;58935;54.498;18.544;2023-11-18T11:01:45;5.32;77.35
71206;SHT31;58935;54.498;18.544;2023-11-18T11:04:14;5.31;77.43
71206;SHT31;58935;54.498;18.544;2023-11-18T11:06:46;5.31;77.81
71206;SHT31;58935;54.498;18.544;2023-11-18T11:09:15;5.35;77.99
71206;SHT31;58935;54.498;18.544;2023-11-18T11:11:46;5.39;78.03
71206;SHT31;58935;54.498;18.544;2023-11-18T11:14:15;5.42;78.04
71206;SHT31;58935;54.498;18.544;2023-11-18T11:16:45;5.46;78.23
71206;SHT31;58935;54.498;18.544;2023-11-18T11:19:24;5.52;78.32
71206;SHT31;58935;54.498;18.544;2023-11-18T11:22:04;5.54;78.07
71206;SHT31;58935;54.498;18.544;2023-11-18T11:24:37;5.55;77.99
71206;SHT31;58935;54.498;18.544;2023-11-18T11:30:28;5.59;78.01
71206;SHT31;58935;54.498;18.544;2023-11-18T11:33:02;5.58;77.59
71206;SHT31;58935;54.498;18.544;2023-11-18T11:35:48;5.54;77.68
71206;SHT31;58935;54.498;18.544;2023-11-18T11:38:23;5.52;77.69
71206;SHT31;58935;54.498;18.544;2023-11-18T11:40:52;5.49;77.71
71206;SHT31;58935;54.498;18.544;2023-11-18T11:43:20;5.49;78.14
71206;SHT31;58935;54.498;18.544;2023-11-18T11:45:48;5.50;78.15
71206;SHT31;58935;54.498;18.544;2023-11-18T11:48:17;5.50;78.11
71206;SHT31;58935;54.498;18.544;2023-11-18T11:50:54;5.51;78.20
71206;SHT31;58935;54.498;18.544;2023-11-18T11:53:40;5.55;78.31
71206;SHT31;58935;54.498;18.544;2023-11-18T11:59:01;5.58;78.00
71206;SHT31;58935;54.498;18.544;2023-11-18T12:01:32;5.56;78.16
71206;SHT31;58935;54.498;18.544;2023-11-18T12:04:04;5.57;78.27
71206;SHT31;58935;54.498;18.544;2023-11-18T12:09:09;5.62;78.47
71206;SHT31;58935;54.498;18.544;2023-11-18T12:11:36;5.63;78.31
71206;SHT31;58935;54.498;18.544;2023-11-18T12:14:07;5.61;78.27
71206;SHT31;58935;54.498;18.544;2023-11-18T12:19:50;5.61;78.32
71206;SHT31;58935;54.498;18.544;2023-11-18T12:22:23;5.60;78.35
71206;SHT31;58935;54.498;18.544;2023-11-18T12:27:57;5.59;78.32
71206;SHT31;58935;54.498;18.544;2023-11-18T12:33:17;5.59;78.53
71206;SHT31;58935;54.498;18.544;2023-11-18T12:36:03;5.56;78.50
71206;SHT31;58935;54.498;18.544;2023-11-18T12:41:39;5.53;78.58
71206;SHT31;58935;54.498;18.544;2023-11-18T12:47:01;5.53;78.83
71206;SHT31;58935;54.498;18.544;2023-11-18T12:49:32;5.51;78.77
71206;SHT31;58935;54.498;18.544;2023-11-18T12:52:06;5.54;78.77
71206;SHT31;58935;54.498;18.544;2023-11-18T12:54:34;5.56;78.78
71206;SHT31;58935;54.498;18.544;2023-11-18T12:57:03;5.55;78.76
71206;SHT31;58935;54.498;18.544;2023-11-18T12:59:33;5.56;78.88
71206;SHT31;58935;54.498;18.544;2023-11-18T13:01:59;5.57;78.81
71206;SHT31;58935;54.498;18.544;2023-11-18T13:04:29;5.54;78.65
71206;SHT31;58935;54.498;18.544;2023-11-18T13:06:56;5.50;78.78
71206;SHT31;58935;54.498;18.544;2023-11-18T13:09:23;5.47;78.87
71206;SHT31;58935;54.498;18.544;2023-11-18T13:11:53;5.45;78.80
71206;SHT31;58935;54.498;18.544;2023-11-18T13:14:22;5.42;78.85
71206;SHT31;58935;54.498;18.544;2023-11-18T13:16:52;5.40;78.97
71206;SHT31;58935;54.498;18.544;2023-11-18T13:21:55;5.35;79.04
71206;SHT31;58935;54.498;18.544;2023-11-18T13:24:24;5.31;79.12
71206;SHT31;58935;54.498;18.544;2023-11-18T13:26:53;5.26;79.09
71206;SHT31;58935;54.498;18.544;2023-11-18T13:29:21;5.20;79.20
71206;SHT31;58935;54.498;18.544;2023-11-18T13:31:49;5.13;79.37
71206;SHT31;58935;54.498;18.544;2023-11-18T13:34:18;5.09;79.56
71206;SHT31;58935;54.498;18.544;2023-11-18T13:36:47;5.07;79.68
71206;SHT31;58935;54.498;18.544;2023-11-18T13:39:17;5.01;79.73
71206;SHT31;58935;54.498;18.544;2023-11-18T13:47:04;4.83;79.98
71206;SHT31;58935;54.498;18.544;2023-11-18T13:49:31;4.80;80.03
71206;SHT31;58935;54.498;18.544;2023-11-18T13:52:00;4.76;80.01
71206;SHT31;58935;54.498;18.544;2023-11-18T13:54:29;4.70;80.12
71206;SHT31;58935;54.498;18.544;2023-11-18T13:56:55;4.64;80.25
71206;SHT31;58935;54.498;18.544;2023-11-18T13:59:24;4.59;80.37
71206;SHT31;58935;54.498;18.544;2023-11-18T14:01:51;4.53;80.48
71206;SHT31;58935;54.498;18.544;2023-11-18T14:04:22;4.48;80.54
71206;SHT31;58935;54.498;18.544;2023-11-18T14:06:56;4.44;80.65
71206;SHT31;58935;54.498;18.544;2023-11-18T14:09:25;4.40;80.71
71206;SHT31;58935;54.498;18.544;2023-11-18T14:11:55;4.34;80.80
71206;SHT31;58935;54.498;18.544;2023-11-18T14:14:22;4.28;80.88
71206;SHT31;58935;54.498;18.544;2023-11-18T14:16:50;4.20;81.07
71206;SHT31;58935;54.498;18.544;2023-11-18T14:19:18;4.14;81.22
71206;SHT31;58935;54.498;18.544;2023-11-18T14:21:43;4.09;81.33
71206;SHT31;58935;54.498;18.544;2023-11-18T14:24:09;4.04;81.46
71206;SHT31;58935;54.498;18.544;2023-11-18T14:26:40;4.00;81.48
71206;SHT31;58935;54.498;18.544;2023-11-18T14:29:06;3.96;81.59
71206;SHT31;58935;54.498;18.544;2023-11-18T14:31:33;3.93;81.66
71206;SHT31;58935;54.498;18.544;2023-11-18T14:34:00;3.91;81.71
71206;SHT31;58935;54.498;18.544;2023-11-18T14:36:26;3.89;81.72
71206;SHT31;58935;54.498;18.544;2023-11-18T14:38:52;3.87;81.79
71206;SHT31;58935;54.498;18.544;2023-11-18T14:41:20;3.85;81.82
71206;SHT31;58935;54.498;18.544;2023-11-18T14:43:51;3.83;81.91
71206;SHT31;58935;54.498;18.544;2023-11-18T14:46:17;3.81;82.10
71206;SHT31;58935;54.498;18.544;2023-11-18T14:48:43;3.80;82.20
71206;SHT31;58935;54.498;18.544;2023-11-18T14:51:11;3.78;82.36
71206;SHT31;58935;54.498;18.544;2023-11-18T14:53:37;3.75;82.46
71206;SHT31;58935;54.498;18.544;2023-11-18T14:56:03;3.72;82.58
71206;SHT31;58935;54.498;18.544;2023-11-18T14:58:30;3.71;82.67
71206;SHT31;58935;54.498;18.544;2023-11-18T15:00:57;3.70;82.76
71206;SHT31;58935;54.498;18.544;2023-11-18T15:03:25;3.71;82.86
71206;SHT31;58935;54.498;18.544;2023-11-18T15:05:51;3.73;82.92
71206;SHT31;58935;54.498;18.544;2023-11-18T15:08:16;3.73;83.00
71206;SHT31;58935;54.498;18.544;2023-11-18T15:10:42;3.75;82.93
71206;SHT31;58935;54.498;18.544;2023-11-18T15:13:10;3.77;82.91
71206;SHT31;58935;54.498;18.544;2023-11-18T15:15:39;3.77;82.91
71206;SHT31;58935;54.498;18.544;2023-11-18T15:18:05;3.79;82.88
71206;SHT31;58935;54.498;18.544;2023-11-18T15:20:34;3.82;82.88
71206;SHT31;58935;54.498;18.544;2023-11-18T15:23:01;3.83;82.88
71206;SHT31;58935;54.498;18.544;2023-11-18T15:25:27;3.83;82.91
71206;SHT31;58935;54.498;18.544;2023-11-18T15:27:53;3.85;82.88
71206;SHT31;58935;54.498;18.544;2023-11-18T15:30:21;3.86;82.84
71206;SHT31;58935;54.498;18.544;2023-11-18T15:32:52;3.87;82.76
71206;SHT31;58935;54.498;18.544;2023-11-18T15:35:19;3.85;82.72
71206;SHT31;58935;54.498;18.544;2023-11-18T15:37:46;3.84;82.70
71206;SHT31;58935;54.498;18.544;2023-11-18T15:40:16;3.84;82.67
71206;SHT31;58935;54.498;18.544;2023-11-18T15:42:44;3.83;82.61
71206;SHT31;58935;54.498;18.544;2023-11-18T15:45:14;3.83;82.64
71206;SHT31;58935;54.498;18.544;2023-11-18T15:47:42;3.84;82.68
71206;SHT31;58935;54.498;18.544;2023-11-18T15:50:13;3.85;82.69
71206;SHT31;58935;54.498;18.544;2023-11-18T15:52:41;3.87;82.73
71206;SHT31;58935;54.498;18.544;2023-11-18T15:55:10;3.88;82.70
71206;SHT31;58935;54.498;18.544;2023-11-18T15:57:39;3.91;82.66
71206;SHT31;58935;54.498;18.544;2023-11-18T16:00:07;3.92;82.64
71206;SHT31;58935;54.498;18.544;2023-11-18T16:02:38;3.92;82.60
71206;SHT31;58935;54.498;18.544;2023-11-18T16:05:05;3.92;82.51
71206;SHT31;58935;54.498;18.544;2023-11-18T16:07:32;3.90;82.47
71206;SHT31;58935;54.498;18.544;2023-11-18T16:09:57;3.88;82.48
71206;SHT31;58935;54.498;18.544;2023-11-18T16:12:26;3.84;82.52